Time;durP1;ratioP1;P1;durP2;ratioP2;P2;SDS_P1;SDS_P2;PMS_P1;PMS_P2;Temp;Humidity;BMP_temperature;BMP_pressure;BME280_temperature;BME280_humidity;BME280_pressure;Samples;Min_cycle;Max_cycle;Signal;HPM_P1;HPM_P2
2022/03/27 00:01:07;;;;;;;34.03;13.13;;;;;;;;;;5089742;28;20072;-63
2022/03/27 00:03:37;;;;;;;30.75;12.60;;;;;;;;;;5090309;28;20048;-64
2022/03/27 00:06:09;;;;;;;36.65;12.88;;;;;;;;;;5093197;28;20551;-63
2022/03/27 00:08:42;;;;;;;40.92;13.55;;;;;;;;;;5086888;28;20059;-63
2022/03/27 00:11:27;;;;;;;33.40;12.85;;;;;;;;;;5091067;28;20067;-64
2022/03/27 00:13:56;;;;;;;33.65;12.77;;;;;;;;;;5087816;28;20044;-63
2022/03/27 00:16:25;;;;;;;34.17;12.68;;;;;;;;;;5092566;28;20139;-63
2022/03/27 00:18:55;;;;;;;39.38;13.20;;;;;;;;;;5091078;28;20123;-63
2022/03/27 00:21:24;;;;;;;37.45;13.13;;;;;;;;;;5095305;28;20531;-64
2022/03/27 00:23:53;;;;;;;38.78;12.77;;;;;;;;;;5091894;28;20055;-63
2022/03/27 00:26:22;;;;;;;36.65;13.68;;;;;;;;;;5092262;28;20072;-63
2022/03/27 00:28:51;;;;;;;36.60;13.93;;;;;;;;;;5077022;28;20051;-63
2022/03/27 00:31:19;;;;;;;45.65;14.23;;;;;;;;;;5092186;28;20086;-63
2022/03/27 00:33:48;;;;;;;36.90;13.70;;;;;;;;;;5090715;28;20043;-63
2022/03/27 00:36:18;;;;;;;33.10;13.25;;;;;;;;;;5072841;28;20052;-63
2022/03/27 00:38:47;;;;;;;38.97;13.75;;;;;;;;;;5089460;28;20495;-63
2022/03/27 00:41:16;;;;;;;39.70;14.75;;;;;;;;;;5089567;28;20472;-64
2022/03/27 00:43:44;;;;;;;32.22;11.30;;;;;;;;;;5090388;28;20037;-63
2022/03/27 00:46:13;;;;;;;37.97;13.65;;;;;;;;;;5089915;28;20405;-64
2022/03/27 00:48:42;;;;;;;34.05;13.05;;;;;;;;;;5090095;28;20044;-63
2022/03/27 00:51:10;;;;;;;35.58;14.77;;;;;;;;;;5089718;28;20449;-63
2022/03/27 00:53:40;;;;;;;40.00;15.30;;;;;;;;;;5085519;28;20094;-63
2022/03/27 00:56:08;;;;;;;35.33;14.13;;;;;;;;;;5088735;28;20051;-64
2022/03/27 00:58:36;;;;;;;43.97;15.60;;;;;;;;;;5089998;28;20138;-63
2022/03/27 01:01:16;;;;;;;40.15;13.10;;;;;;;;;;5088763;28;20048;-63
2022/03/27 01:03:47;;;;;;;33.25;13.38;;;;;;;;;;5091475;28;20044;-63
2022/03/27 01:06:25;;;;;;;41.00;15.95;;;;;;;;;;5085186;28;20047;-63
2022/03/27 01:11:41;;;;;;;41.45;14.13;;;;;;;;;;5091614;28;20036;-63
2022/03/27 01:14:10;;;;;;;43.40;14.65;;;;;;;;;;5102865;28;20056;-63
2022/03/27 01:16:39;;;;;;;35.28;13.95;;;;;;;;;;5105020;28;20072;-63
2022/03/27 01:19:09;;;;;;;33.22;13.52;;;;;;;;;;5091105;28;20121;-63
2022/03/27 01:21:40;;;;;;;33.80;13.75;;;;;;;;;;5100732;28;20443;-63
2022/03/27 01:24:09;;;;;;;33.90;13.68;;;;;;;;;;5092191;28;20043;-63
2022/03/27 01:26:38;;;;;;;37.30;14.77;;;;;;;;;;5096475;28;20055;-63
2022/03/27 01:29:06;;;;;;;40.22;14.75;;;;;;;;;;5091947;28;20083;-63
2022/03/27 01:31:35;;;;;;;41.00;14.98;;;;;;;;;;5098257;28;20075;-63
2022/03/27 01:34:04;;;;;;;34.78;13.63;;;;;;;;;;5087239;28;20056;-63
2022/03/27 01:36:34;;;;;;;45.13;16.20;;;;;;;;;;5086748;28;20044;-63
2022/03/27 01:39:05;;;;;;;35.90;14.18;;;;;;;;;;5095333;28;20052;-63
2022/03/27 01:41:34;;;;;;;49.80;15.57;;;;;;;;;;5090568;28;20055;-63
2022/03/27 01:44:02;;;;;;;42.88;16.30;;;;;;;;;;5092870;28;20490;-63
2022/03/27 01:46:32;;;;;;;41.80;15.07;;;;;;;;;;5105568;28;20039;-63
2022/03/27 01:49:01;;;;;;;34.67;15.07;;;;;;;;;;5091745;28;20044;-63
2022/03/27 01:51:29;;;;;;;46.05;16.15;;;;;;;;;;5105966;28;20458;-63
2022/03/27 01:53:57;;;;;;;37.50;14.88;;;;;;;;;;5090906;28;20131;-63
2022/03/27 01:56:27;;;;;;;36.28;15.18;;;;;;;;;;5097527;28;20059;-63
2022/03/27 01:58:56;;;;;;;43.15;15.50;;;;;;;;;;5098220;28;20382;-63
2022/03/27 02:01:24;;;;;;;32.88;14.25;;;;;;;;;;5089461;28;20089;-63
2022/03/27 02:03:54;;;;;;;39.17;14.35;;;;;;;;;;5096164;28;20491;-64
2022/03/27 02:06:23;;;;;;;39.40;15.90;;;;;;;;;;5094834;28;20528;-63
2022/03/27 02:08:52;;;;;;;39.42;13.93;;;;;;;;;;5103676;28;20043;-64
2022/03/27 02:11:21;;;;;;;40.67;14.93;;;;;;;;;;5091636;28;20075;-64
2022/03/27 02:13:51;;;;;;;39.03;14.82;;;;;;;;;;5099952;28;20078;-63
2022/03/27 02:16:19;;;;;;;35.33;15.45;;;;;;;;;;5092509;28;20531;-63
2022/03/27 02:18:47;;;;;;;45.28;15.30;;;;;;;;;;5092646;28;20051;-63
2022/03/27 02:21:16;;;;;;;41.58;16.02;;;;;;;;;;5097249;28;20280;-63
2022/03/27 02:23:44;;;;;;;40.33;15.77;;;;;;;;;;5098640;28;20126;-63
2022/03/27 02:26:12;;;;;;;42.38;16.85;;;;;;;;;;5102280;28;20044;-63
2022/03/27 02:28:41;;;;;;;46.83;17.20;;;;;;;;;;5089275;28;20406;-63
2022/03/27 02:31:11;;;;;;;42.17;15.63;;;;;;;;;;5090414;28;20044;-63
2022/03/27 02:33:39;;;;;;;38.40;16.38;;;;;;;;;;5096824;28;20044;-63
2022/03/27 02:36:08;;;;;;;44.45;15.93;;;;;;;;;;5088860;28;20140;-63
2022/03/27 02:38:37;;;;;;;36.97;16.25;;;;;;;;;;5091640;28;20075;-64
2022/03/27 02:41:08;;;;;;;39.00;17.10;;;;;;;;;;5103659;28;20138;-63
2022/03/27 02:43:38;;;;;;;43.28;16.42;;;;;;;;;;5105820;28;20127;-63
2022/03/27 02:46:07;;;;;;;43.72;16.60;;;;;;;;;;5087867;28;20113;-63
2022/03/27 02:48:37;;;;;;;42.95;17.70;;;;;;;;;;5089417;28;20058;-63
2022/03/27 02:51:08;;;;;;;46.17;17.15;;;;;;;;;;5099913;28;20131;-63
2022/03/27 02:53:36;;;;;;;43.58;18.05;;;;;;;;;;5100168;28;20076;-63
2022/03/27 02:56:09;;;;;;;41.17;15.77;;;;;;;;;;5088373;28;20681;-63
2022/03/27 02:58:37;;;;;;;44.42;16.63;;;;;;;;;;5093416;28;20098;-63
2022/03/27 03:01:09;;;;;;;45.92;18.13;;;;;;;;;;5088838;28;20522;-63
2022/03/27 03:03:41;;;;;;;46.03;19.30;;;;;;;;;;5089900;28;20083;-63
2022/03/27 03:06:10;;;;;;;39.55;17.73;;;;;;;;;;5088979;28;20142;-63
2022/03/27 03:08:39;;;;;;;46.92;18.02;;;;;;;;;;5088742;28;20048;-64
2022/03/27 03:11:08;;;;;;;47.72;19.05;;;;;;;;;;5074305;28;20102;-64
2022/03/27 03:13:36;;;;;;;50.40;17.90;;;;;;;;;;5089502;28;20117;-63
2022/03/27 03:16:08;;;;;;;42.25;16.35;;;;;;;;;;5087024;28;20521;-63
2022/03/27 03:18:36;;;;;;;37.63;16.13;;;;;;;;;;5091066;28;20052;-63
2022/03/27 03:21:08;;;;;;;43.38;17.90;;;;;;;;;;5091555;28;20075;-63
2022/03/27 03:23:36;;;;;;;49.63;18.15;;;;;;;;;;5102931;28;20132;-63
2022/03/27 03:26:09;;;;;;;48.45;17.00;;;;;;;;;;5087705;28;20086;-63
2022/03/27 03:28:37;;;;;;;46.05;17.35;;;;;;;;;;5088578;28;20052;-63
2022/03/27 03:31:09;;;;;;;46.22;19.17;;;;;;;;;;5090817;28;20131;-63
2022/03/27 03:33:37;;;;;;;40.88;16.58;;;;;;;;;;5090808;28;20449;-63
2022/03/27 03:36:10;;;;;;;42.60;17.75;;;;;;;;;;5098002;28;20123;-63
2022/03/27 03:38:39;;;;;;;47.88;18.00;;;;;;;;;;5088627;28;20102;-63
2022/03/27 03:41:08;;;;;;;42.38;16.75;;;;;;;;;;5097324;28;20101;-64
2022/03/27 03:43:37;;;;;;;47.03;18.52;;;;;;;;;;5092614;28;20119;-63
2022/03/27 03:46:08;;;;;;;50.47;17.83;;;;;;;;;;5089224;28;20139;-63
2022/03/27 03:48:36;;;;;;;40.42;16.98;;;;;;;;;;5087424;28;20438;-64
2022/03/27 03:51:07;;;;;;;41.47;18.30;;;;;;;;;;5102258;28;20661;-64
2022/03/27 03:53:37;;;;;;;49.92;17.55;;;;;;;;;;5096414;28;20083;-63
2022/03/27 03:56:08;;;;;;;45.08;17.00;;;;;;;;;;5097115;28;20051;-63
2022/03/27 03:58:37;;;;;;;42.75;17.27;;;;;;;;;;5096433;28;20515;-63
2022/03/27 04:01:08;;;;;;;47.03;17.25;;;;;;;;;;5094440;28;20058;-64
2022/03/27 04:03:36;;;;;;;42.55;16.55;;;;;;;;;;5087150;28;20048;-63
2022/03/27 04:06:07;;;;;;;42.90;16.55;;;;;;;;;;5090874;28;20058;-63
2022/03/27 04:08:37;;;;;;;42.78;17.65;;;;;;;;;;5090832;28;20076;-63
2022/03/27 04:11:14;;;;;;;46.17;17.90;;;;;;;;;;5088722;28;20048;-63
2022/03/27 04:13:43;;;;;;;45.40;16.75;;;;;;;;;;5095351;28;20118;-63
2022/03/27 04:16:12;;;;;;;42.95;16.92;;;;;;;;;;5091340;28;20543;-63
2022/03/27 04:18:40;;;;;;;40.75;16.45;;;;;;;;;;5099678;28;20052;-63
2022/03/27 04:21:09;;;;;;;46.80;17.52;;;;;;;;;;5094489;28;20578;-63
2022/03/27 04:23:39;;;;;;;43.17;16.85;;;;;;;;;;5091663;28;20147;-63
2022/03/27 04:26:07;;;;;;;45.35;17.27;;;;;;;;;;5091162;28;20138;-64
2022/03/27 04:28:35;;;;;;;43.78;16.60;;;;;;;;;;5094396;28;20139;-63
2022/03/27 04:31:06;;;;;;;44.78;17.73;;;;;;;;;;5100349;28;20511;-63
2022/03/27 04:33:35;;;;;;;45.42;16.85;;;;;;;;;;5090417;28;20138;-63
2022/03/27 04:36:08;;;;;;;42.80;16.80;;;;;;;;;;5087903;28;20566;-63
2022/03/27 04:38:37;;;;;;;47.05;17.00;;;;;;;;;;5095301;28;20055;-63
2022/03/27 04:41:10;;;;;;;34.22;16.27;;;;;;;;;;5095258;28;20472;-64
2022/03/27 04:43:38;;;;;;;41.20;16.38;;;;;;;;;;5096466;28;20048;-63
2022/03/27 04:46:07;;;;;;;39.65;16.38;;;;;;;;;;5095285;28;20091;-64
2022/03/27 04:48:36;;;;;;;42.33;16.80;;;;;;;;;;5091967;28;20040;-63
2022/03/27 04:51:07;;;;;;;43.05;16.33;;;;;;;;;;5091400;28;20253;-63
2022/03/27 04:53:36;;;;;;;35.83;15.43;;;;;;;;;;5091840;28;20076;-63
2022/03/27 04:56:08;;;;;;;39.13;15.85;;;;;;;;;;5099785;28;20048;-63
2022/03/27 04:58:37;;;;;;;42.22;16.45;;;;;;;;;;5095082;28;20573;-63
2022/03/27 05:01:10;;;;;;;38.05;16.23;;;;;;;;;;5102739;28;20083;-63
2022/03/27 05:03:38;;;;;;;43.70;16.38;;;;;;;;;;5104998;28;20492;-63
2022/03/27 05:06:07;;;;;;;41.08;17.63;;;;;;;;;;5092886;28;20135;-63
2022/03/27 05:08:35;;;;;;;42.95;15.32;;;;;;;;;;5091958;28;20656;-64
2022/03/27 05:11:07;;;;;;;40.50;16.10;;;;;;;;;;5097576;28;20047;-63
2022/03/27 05:13:35;;;;;;;41.83;16.05;;;;;;;;;;5092477;28;20087;-63
2022/03/27 05:16:07;;;;;;;45.97;15.57;;;;;;;;;;5094297;28;20510;-63
2022/03/27 05:18:36;;;;;;;31.35;13.30;;;;;;;;;;5103832;28;20426;-63
2022/03/27 05:21:07;;;;;;;38.85;14.15;;;;;;;;;;5111069;28;20130;-64
2022/03/27 05:23:35;;;;;;;40.47;15.48;;;;;;;;;;5098622;28;20127;-63
2022/03/27 05:26:06;;;;;;;40.70;15.45;;;;;;;;;;5091151;28;20131;-63
2022/03/27 05:28:34;;;;;;;40.40;15.15;;;;;;;;;;5089025;28;20105;-64
2022/03/27 05:31:09;;;;;;;41.63;14.75;;;;;;;;;;5092005;28;20536;-63
2022/03/27 05:33:39;;;;;;;36.70;15.70;;;;;;;;;;5091266;28;20086;-63
2022/03/27 05:36:08;;;;;;;42.45;16.20;;;;;;;;;;5092245;28;20092;-63
2022/03/27 05:38:37;;;;;;;48.38;16.80;;;;;;;;;;5095975;28;20079;-64
2022/03/27 05:41:10;;;;;;;44.22;16.60;;;;;;;;;;5106480;28;20048;-63
2022/03/27 05:43:39;;;;;;;37.80;13.80;;;;;;;;;;5090966;28;20119;-63
2022/03/27 05:46:07;;;;;;;41.03;15.07;;;;;;;;;;5104385;28;20044;-63
2022/03/27 05:48:36;;;;;;;37.10;14.52;;;;;;;;;;5090162;28;20562;-63
2022/03/27 05:51:09;;;;;;;38.58;15.32;;;;;;;;;;5075004;28;20089;-63
2022/03/27 05:53:37;;;;;;;45.50;15.88;;;;;;;;;;5103886;28;20182;-63
2022/03/27 05:56:08;;;;;;;37.30;14.20;;;;;;;;;;5106178;28;20094;-64
2022/03/27 05:58:37;;;;;;;42.60;13.63;;;;;;;;;;5089522;28;20143;-63
2022/03/27 06:01:09;;;;;;;38.67;14.23;;;;;;;;;;5094194;28;20179;-63
2022/03/27 06:03:37;;;;;;;43.03;14.00;;;;;;;;;;5093963;28;20044;-63
2022/03/27 06:06:10;;;;;;;39.83;14.90;;;;;;;;;;5091364;28;20063;-63
2022/03/27 06:08:38;;;;;;;32.53;13.85;;;;;;;;;;5089332;28;20080;-63
2022/03/27 06:11:10;;;;;;;43.25;14.50;;;;;;;;;;5098767;28;20130;-64
2022/03/27 06:13:38;;;;;;;38.25;13.95;;;;;;;;;;5092453;28;20044;-63
2022/03/27 06:16:07;;;;;;;36.95;13.75;;;;;;;;;;5088268;28;20058;-63
2022/03/27 06:18:35;;;;;;;37.83;14.70;;;;;;;;;;5089688;28;20060;-63
2022/03/27 06:21:07;;;;;;;35.15;13.68;;;;;;;;;;5093864;28;20559;-63
2022/03/27 06:23:36;;;;;;;37.58;13.85;;;;;;;;;;5091143;28;20048;-63
2022/03/27 06:26:08;;;;;;;42.83;13.88;;;;;;;;;;5091386;28;20068;-63
2022/03/27 06:28:36;;;;;;;39.38;13.38;;;;;;;;;;5093489;28;20047;-63
2022/03/27 06:31:08;;;;;;;40.35;14.32;;;;;;;;;;5090372;28;20059;-63
2022/03/27 06:33:36;;;;;;;36.42;13.48;;;;;;;;;;5091486;28;20486;-64
2022/03/27 06:36:08;;;;;;;36.20;14.55;;;;;;;;;;5084377;28;20048;-64
2022/03/27 06:38:38;;;;;;;39.17;15.25;;;;;;;;;;5089615;28;20198;-64
2022/03/27 06:41:07;;;;;;;42.83;15.27;;;;;;;;;;5087712;28;20409;-64
2022/03/27 06:43:36;;;;;;;38.05;14.68;;;;;;;;;;5088021;28;20075;-64
2022/03/27 06:46:13;;;;;;;43.90;14.35;;;;;;;;;;5082813;28;20048;-64
2022/03/27 06:48:41;;;;;;;41.25;15.00;;;;;;;;;;5087223;28;20090;-63
2022/03/27 06:51:10;;;;;;;33.70;15.15;;;;;;;;;;5101790;28;20056;-64
2022/03/27 06:53:40;;;;;;;43.78;17.17;;;;;;;;;;5091607;28;20051;-64
2022/03/27 06:56:09;;;;;;;34.50;14.18;;;;;;;;;;5086788;28;20438;-64
2022/03/27 06:58:37;;;;;;;33.33;13.32;;;;;;;;;;5093549;28;20047;-64
2022/03/27 07:03:55;;;;;;;33.50;11.98;;;;;;;;;;5088171;28;20569;-64
2022/03/27 07:06:23;;;;;;;33.70;13.32;;;;;;;;;;5099764;28;20058;-64
2022/03/27 07:08:53;;;;;;;33.92;13.38;;;;;;;;;;5087848;28;20047;-64
2022/03/27 07:11:21;;;;;;;31.60;13.05;;;;;;;;;;5090014;28;20506;-64
2022/03/27 07:13:50;;;;;;;35.47;13.48;;;;;;;;;;5094883;28;20126;-63
2022/03/27 07:16:18;;;;;;;30.67;11.77;;;;;;;;;;5084591;28;20086;-64
2022/03/27 07:18:49;;;;;;;30.73;12.25;;;;;;;;;;5084618;28;20148;-64
2022/03/27 07:21:18;;;;;;;31.40;11.45;;;;;;;;;;5089319;28;20051;-64
2022/03/27 07:23:46;;;;;;;35.80;13.63;;;;;;;;;;5078775;28;20087;-64
2022/03/27 07:26:18;;;;;;;29.88;12.23;;;;;;;;;;5085011;28;20443;-64
2022/03/27 07:28:46;;;;;;;31.73;13.32;;;;;;;;;;5082311;28;20386;-64
2022/03/27 07:31:15;;;;;;;30.10;12.80;;;;;;;;;;5085598;28;20052;-64
2022/03/27 07:33:43;;;;;;;27.30;11.60;;;;;;;;;;5085423;28;20060;-64
2022/03/27 07:36:12;;;;;;;32.17;11.10;;;;;;;;;;5074607;28;20144;-64
2022/03/27 07:38:40;;;;;;;30.27;11.65;;;;;;;;;;5085482;28;20634;-64
2022/03/27 07:41:09;;;;;;;29.92;11.32;;;;;;;;;;5086293;28;20080;-64
2022/03/27 07:43:38;;;;;;;30.98;12.32;;;;;;;;;;5079754;28;20069;-64
2022/03/27 07:46:07;;;;;;;29.48;10.48;;;;;;;;;;5087006;28;20102;-64
2022/03/27 07:48:35;;;;;;;29.25;11.02;;;;;;;;;;5089239;28;20052;-64
2022/03/27 07:51:08;;;;;;;32.10;11.20;;;;;;;;;;5075924;28;20375;-64
2022/03/27 07:53:36;;;;;;;28.35;11.45;;;;;;;;;;5088467;28;20056;-64
2022/03/27 07:56:08;;;;;;;36.22;13.00;;;;;;;;;;5089484;28;20052;-64
2022/03/27 07:58:36;;;;;;;27.95;12.82;;;;;;;;;;5090832;28;20052;-64
2022/03/27 08:01:09;;;;;;;29.70;12.25;;;;;;;;;;5086550;28;20464;-64
2022/03/27 08:03:39;;;;;;;28.42;10.80;;;;;;;;;;5088799;28;20036;-64
2022/03/27 08:06:08;;;;;;;27.70;11.20;;;;;;;;;;5088287;28;20130;-64
2022/03/27 08:08:37;;;;;;;31.02;11.20;;;;;;;;;;5077249;28;20533;-64
2022/03/27 08:11:06;;;;;;;33.60;12.50;;;;;;;;;;5085591;28;20052;-64
2022/03/27 08:13:35;;;;;;;30.00;11.95;;;;;;;;;;5087687;28;20052;-64
2022/03/27 08:16:11;;;;;;;30.48;12.02;;;;;;;;;;5088502;28;20044;-64
2022/03/27 08:18:43;;;;;;;28.58;10.68;;;;;;;;;;5078779;28;20048;-64
2022/03/27 08:21:11;;;;;;;29.13;12.75;;;;;;;;;;5084931;28;20502;-64
2022/03/27 08:23:40;;;;;;;28.95;11.13;;;;;;;;;;5091769;28;20139;-64
2022/03/27 08:28:50;;;;;;;26.90;12.25;;;;;;;;;;5051620;28;20084;-62
2022/03/27 08:31:19;;;;;;;29.50;11.93;;;;;;;;;;5081505;28;20048;-62
2022/03/27 08:33:49;;;;;;;31.63;11.93;;;;;;;;;;5083663;28;20503;-62
2022/03/27 08:36:17;;;;;;;27.67;12.10;;;;;;;;;;5075482;28;20106;-62
2022/03/27 08:38:46;;;;;;;31.50;12.48;;;;;;;;;;5088740;28;20083;-62
2022/03/27 08:41:16;;;;;;;29.35;11.70;;;;;;;;;;5082966;28;20464;-62
2022/03/27 08:43:45;;;;;;;31.58;12.32;;;;;;;;;;5086468;28;20051;-63
2022/03/27 08:46:13;;;;;;;29.60;12.43;;;;;;;;;;5080159;28;20349;-63
2022/03/27 08:48:44;;;;;;;30.13;11.23;;;;;;;;;;5084572;28;20052;-64
2022/03/27 08:51:28;;;;;;;24.80;10.50;;;;;;;;;;5086568;28;20127;-63
2022/03/27 08:54:01;;;;;;;30.30;12.55;;;;;;;;;;5086433;28;20446;-63
2022/03/27 08:56:30;;;;;;;31.27;12.45;;;;;;;;;;5086550;28;20055;-63
2022/03/27 08:59:00;;;;;;;26.38;11.23;;;;;;;;;;5083805;28;20101;-63
2022/03/27 09:01:29;;;;;;;28.00;11.38;;;;;;;;;;5087566;28;20130;-64
2022/03/27 09:03:57;;;;;;;25.90;11.65;;;;;;;;;;5085621;28;20101;-64
2022/03/27 09:06:27;;;;;;;26.08;11.23;;;;;;;;;;5087116;28;20054;-64
2022/03/27 09:08:55;;;;;;;25.02;10.68;;;;;;;;;;5085405;28;20056;-64
2022/03/27 09:11:24;;;;;;;35.65;11.75;;;;;;;;;;5088019;28;20094;-64
2022/03/27 09:13:54;;;;;;;24.65;10.55;;;;;;;;;;5087824;28;20091;-65
2022/03/27 09:16:23;;;;;;;28.42;11.60;;;;;;;;;;5088550;28;20055;-64
2022/03/27 09:18:52;;;;;;;23.52;10.70;;;;;;;;;;5086970;28;20075;-64
2022/03/27 09:21:21;;;;;;;24.80;11.88;;;;;;;;;;5088827;28;20506;-64
2022/03/27 09:23:55;;;;;;;23.35;10.75;;;;;;;;;;5091009;28;20043;-64
2022/03/27 09:26:23;;;;;;;27.70;12.05;;;;;;;;;;5089900;28;20095;-64
2022/03/27 09:28:53;;;;;;;29.70;10.73;;;;;;;;;;5089891;28;20120;-65
2022/03/27 09:31:23;;;;;;;24.70;10.80;;;;;;;;;;5086631;28;20055;-64
2022/03/27 09:33:53;;;;;;;25.33;11.30;;;;;;;;;;5087072;28;20063;-64
2022/03/27 09:36:22;;;;;;;23.95;10.25;;;;;;;;;;5083207;28;20071;-64
2022/03/27 09:39:07;;;;;;;24.90;11.43;;;;;;;;;;5087390;28;20518;-64
2022/03/27 09:41:37;;;;;;;26.73;11.10;;;;;;;;;;5083083;28;20102;-65
2022/03/27 09:44:07;;;;;;;25.55;10.18;;;;;;;;;;5095110;28;20071;-65
2022/03/27 09:46:48;;;;;;;28.83;11.18;;;;;;;;;;5088233;28;20576;-65
2022/03/27 09:49:16;;;;;;;27.52;11.10;;;;;;;;;;5080429;28;20416;-66
2022/03/27 09:51:52;;;;;;;24.52;10.30;;;;;;;;;;5084605;28;20048;-67
2022/03/27 09:54:23;;;;;;;25.60;10.68;;;;;;;;;;5081433;28;20044;-67
2022/03/27 09:56:51;;;;;;;31.05;11.63;;;;;;;;;;5089635;28;20044;-67
2022/03/27 09:59:30;;;;;;;28.10;12.25;;;;;;;;;;5089998;28;20097;-67
2022/03/27 10:02:13;;;;;;;24.75;12.77;;;;;;;;;;5088942;28;20051;-65
2022/03/27 10:04:52;;;;;;;25.98;11.88;;;;;;;;;;5090521;28;20063;-66
2022/03/27 10:07:22;;;;;;;29.52;13.07;;;;;;;;;;5087935;28;20044;-65
2022/03/27 10:09:52;;;;;;;25.23;11.98;;;;;;;;;;5090600;28;20044;-66
2022/03/27 10:12:25;;;;;;;27.13;12.88;;;;;;;;;;5087823;28;20121;-65
2022/03/27 10:14:56;;;;;;;24.27;12.20;;;;;;;;;;5090146;28;20940;-66
2022/03/27 10:17:27;;;;;;;29.42;12.02;;;;;;;;;;5086861;28;20040;-67
2022/03/27 10:19:58;;;;;;;26.27;12.75;;;;;;;;;;5086861;28;20063;-67
2022/03/27 10:22:29;;;;;;;29.85;12.30;;;;;;;;;;5083680;28;20056;-67
2022/03/27 10:25:03;;;;;;;27.55;12.13;;;;;;;;;;5086915;28;20093;-66
2022/03/27 10:27:32;;;;;;;25.67;11.98;;;;;;;;;;5088567;28;20046;-67
2022/03/27 10:30:01;;;;;;;28.83;12.07;;;;;;;;;;5085631;28;20048;-67
2022/03/27 10:32:29;;;;;;;26.95;12.15;;;;;;;;;;5096324;28;20077;-67
2022/03/27 10:35:06;;;;;;;28.15;11.75;;;;;;;;;;5095226;28;20478;-67
2022/03/27 10:37:36;;;;;;;26.08;11.98;;;;;;;;;;5075495;28;20346;-67
2022/03/27 10:40:10;;;;;;;29.15;12.38;;;;;;;;;;5084895;28;20079;-67
2022/03/27 10:42:46;;;;;;;24.57;11.13;;;;;;;;;;5089860;28;20040;-67
2022/03/27 10:45:17;;;;;;;26.05;11.15;;;;;;;;;;5084671;28;20052;-67
2022/03/27 10:48:09;;;;;;;26.63;11.52;;;;;;;;;;5087447;28;20487;-67
2022/03/27 10:50:46;;;;;;;25.83;11.07;;;;;;;;;;5088479;28;20117;-67
2022/03/27 10:53:15;;;;;;;24.85;11.93;;;;;;;;;;5088313;28;20135;-67
2022/03/27 10:55:46;;;;;;;24.50;11.57;;;;;;;;;;5099280;28;20578;-67
2022/03/27 10:58:31;;;;;;;26.27;11.90;;;;;;;;;;5084968;28;20047;-68
2022/03/27 11:01:00;;;;;;;;;;;;;;;;;;5081653;28;20572;-67
2022/03/27 11:03:49;;;;;;;25.75;11.48;;;;;;;;;;5089836;28;20014;-67
2022/03/27 11:06:24;;;;;;;34.05;12.23;;;;;;;;;;5088149;28;20089;-67
2022/03/27 11:08:54;;;;;;;25.92;11.20;;;;;;;;;;5087593;28;20372;-67
2022/03/27 11:11:40;;;;;;;28.88;11.63;;;;;;;;;;5085139;28;20071;-67
2022/03/27 11:14:11;;;;;;;30.58;11.45;;;;;;;;;;5081582;28;20558;-68
2022/03/27 11:17:05;;;;;;;26.20;11.63;;;;;;;;;;5092913;28;20044;-67
2022/03/27 11:19:41;;;;;;;25.65;11.23;;;;;;;;;;5077078;28;20131;-67
2022/03/27 11:22:25;;;;;;;25.20;12.23;;;;;;;;;;5088810;28;20052;-66
2022/03/27 11:25:08;;;;;;;25.63;11.88;;;;;;;;;;5091031;28;20039;-67
2022/03/27 11:27:56;;;;;;;25.13;10.95;;;;;;;;;;5086887;28;20202;-67
2022/03/27 11:30:26;;;;;;;25.85;11.80;;;;;;;;;;5084294;28;20044;-67
2022/03/27 11:33:13;;;;;;;23.92;12.77;;;;;;;;;;5088009;28;20109;-67
2022/03/27 11:35:43;;;;;;;31.13;11.88;;;;;;;;;;5090233;28;20049;-67
2022/03/27 11:38:22;;;;;;;26.88;12.48;;;;;;;;;;5093153;28;20056;-67
2022/03/27 11:40:50;;;;;;;26.58;11.88;;;;;;;;;;5105661;28;20052;-67
2022/03/27 11:43:32;;;;;;;25.73;12.23;;;;;;;;;;5091895;28;20048;-67
2022/03/27 11:46:02;;;;;;;27.67;11.35;;;;;;;;;;5087414;28;20475;-67
2022/03/27 11:48:34;;;;;;;22.08;11.60;;;;;;;;;;5082489;28;20052;-67
2022/03/27 11:51:14;;;;;;;27.33;12.38;;;;;;;;;;5088956;28;20127;-67
2022/03/27 11:53:43;;;;;;;24.13;11.80;;;;;;;;;;5088791;28;20036;-67
2022/03/27 11:56:12;;;;;;;26.27;13.38;;;;;;;;;;5091312;28;20044;-67
2022/03/27 11:58:42;;;;;;;29.13;12.20;;;;;;;;;;5091456;28;20052;-67
2022/03/27 12:01:12;;;;;;;26.08;13.20;;;;;;;;;;5090515;28;20048;-70
2022/03/27 12:03:41;;;;;;;25.45;12.18;;;;;;;;;;5091037;28;20040;-70
2022/03/27 12:06:11;;;;;;;29.40;12.15;;;;;;;;;;5088074;28;20113;-71
2022/03/27 12:08:40;;;;;;;32.67;12.52;;;;;;;;;;5090491;28;20208;-71
2022/03/27 12:11:09;;;;;;;27.95;11.82;;;;;;;;;;5086468;28;20104;-70
2022/03/27 12:13:39;;;;;;;21.85;11.23;;;;;;;;;;5089249;28;20040;-70
2022/03/27 12:16:08;;;;;;;24.02;11.50;;;;;;;;;;5091026;28;20074;-70
2022/03/27 12:18:39;;;;;;;24.38;11.88;;;;;;;;;;5086064;28;20589;-69
2022/03/27 12:21:10;;;;;;;27.55;11.85;;;;;;;;;;5091918;28;20064;-70
2022/03/27 12:23:39;;;;;;;31.40;12.77;;;;;;;;;;5088072;28;20064;-70
2022/03/27 12:32:02;;;;;;;29.23;12.32;;;;;;;;;;5086184;28;20054;-70
2022/03/27 12:34:33;;;;;;;34.63;18.10;;;;;;;;;;5085559;28;20048;-70
2022/03/27 12:37:12;;;;;;;28.02;13.23;;;;;;;;;;5089159;28;20055;-70
2022/03/27 12:39:42;;;;;;;21.70;10.93;;;;;;;;;;5080640;28;20427;-70
2022/03/27 12:42:32;;;;;;;23.02;11.70;;;;;;;;;;5090121;28;20487;-70
2022/03/27 12:45:02;;;;;;;25.05;11.38;;;;;;;;;;5086769;28;20045;-70
2022/03/27 12:47:31;;;;;;;20.80;10.50;;;;;;;;;;5081315;28;20358;-70
2022/03/27 12:50:01;;;;;;;21.08;9.95;;;;;;;;;;5087742;28;20056;-70
2022/03/27 12:52:30;;;;;;;20.70;9.98;;;;;;;;;;5089019;28;20130;-70
2022/03/27 12:54:59;;;;;;;21.15;10.38;;;;;;;;;;5087955;28;20044;-70
2022/03/27 12:57:43;;;;;;;21.88;10.00;;;;;;;;;;5089145;28;20117;-70
2022/03/27 13:00:14;;;;;;;29.27;17.23;;;;;;;;;;5089645;28;20055;-70
2022/03/27 13:02:43;;;;;;;24.20;10.90;;;;;;;;;;5090595;28;20048;-70
2022/03/27 13:05:15;;;;;;;31.75;23.35;;;;;;;;;;5091094;28;20044;-70
2022/03/27 13:07:53;;;;;;;27.98;16.27;;;;;;;;;;5090589;28;20071;-70
2022/03/27 13:10:22;;;;;;;22.88;11.57;;;;;;;;;;5071926;28;20059;-70
2022/03/27 13:13:02;;;;;;;25.38;10.90;;;;;;;;;;5085798;28;20040;-70
2022/03/27 13:15:41;;;;;;;26.77;13.10;;;;;;;;;;5081341;28;20140;-70
2022/03/27 13:18:11;;;;;;;23.85;10.00;;;;;;;;;;5088594;28;20665;-70
2022/03/27 13:20:41;;;;;;;24.38;10.00;;;;;;;;;;5090120;28;20124;-69
2022/03/27 13:23:10;;;;;;;20.10;8.85;;;;;;;;;;5089514;28;20040;-70
2022/03/27 13:25:39;;;;;;;16.98;8.30;;;;;;;;;;5089209;28;20151;-70
2022/03/27 13:28:08;;;;;;;21.38;9.35;;;;;;;;;;5089883;28;20052;-70
2022/03/27 13:30:37;;;;;;;20.23;9.05;;;;;;;;;;5080642;28;20060;-69
2022/03/27 13:33:06;;;;;;;21.92;9.40;;;;;;;;;;5086123;28;20403;-70
2022/03/27 13:35:35;;;;;;;21.35;8.50;;;;;;;;;;5083298;28;20102;-71
2022/03/27 13:38:08;;;;;;;17.67;8.50;;;;;;;;;;5089205;28;20178;-70
2022/03/27 13:43:23;;;;;;;17.27;7.55;;;;;;;;;;5083774;28;20042;-68
2022/03/27 13:45:52;;;;;;;19.38;9.00;;;;;;;;;;5089978;28;20040;-68
2022/03/27 13:48:20;;;;;;;18.63;8.70;;;;;;;;;;5085427;28;20151;-68
2022/03/27 13:50:49;;;;;;;19.05;9.35;;;;;;;;;;5089500;28;20044;-68
2022/03/27 13:53:19;;;;;;;19.30;8.25;;;;;;;;;;5088594;28;20345;-68
2022/03/27 13:55:48;;;;;;;17.00;8.80;;;;;;;;;;5089801;28;20063;-68
2022/03/27 13:58:16;;;;;;;17.42;7.90;;;;;;;;;;5090553;28;20051;-68
2022/03/27 14:00:45;;;;;;;17.50;8.02;;;;;;;;;;5088528;28;20131;-68
2022/03/27 14:03:15;;;;;;;19.33;8.40;;;;;;;;;;5088975;28;20101;-69
2022/03/27 14:05:44;;;;;;;16.83;8.20;;;;;;;;;;5086149;28;20044;-69
2022/03/27 14:08:13;;;;;;;18.65;8.13;;;;;;;;;;5088305;28;20400;-69
2022/03/27 14:10:43;;;;;;;22.08;8.43;;;;;;;;;;5086250;28;20059;-69
2022/03/27 14:13:11;;;;;;;19.05;7.82;;;;;;;;;;5091007;28;20051;-69
2022/03/27 14:15:40;;;;;;;17.63;8.25;;;;;;;;;;5082036;28;20048;-69
2022/03/27 14:18:09;;;;;;;20.10;8.18;;;;;;;;;;5088332;28;20048;-69
2022/03/27 14:20:39;;;;;;;15.05;7.22;;;;;;;;;;5086027;28;20150;-69
2022/03/27 14:23:07;;;;;;;16.75;7.07;;;;;;;;;;5079993;28;20056;-69
2022/03/27 14:25:36;;;;;;;18.85;7.90;;;;;;;;;;5087563;28;20052;-69
2022/03/27 14:28:06;;;;;;;18.38;7.75;;;;;;;;;;5089627;28;20040;-69
2022/03/27 14:30:36;;;;;;;19.88;8.85;;;;;;;;;;5087712;28;20149;-68
2022/03/27 14:33:05;;;;;;;18.52;8.68;;;;;;;;;;5087886;28;20050;-69
2022/03/27 14:35:34;;;;;;;19.77;8.05;;;;;;;;;;5088907;28;20533;-69
2022/03/27 14:38:02;;;;;;;16.00;8.25;;;;;;;;;;5082741;28;20041;-69
2022/03/27 14:40:32;;;;;;;13.25;6.93;;;;;;;;;;5080137;28;20105;-69
2022/03/27 14:43:00;;;;;;;15.45;7.35;;;;;;;;;;5087589;28;20048;-68
2022/03/27 14:45:35;;;;;;;15.73;7.15;;;;;;;;;;5083598;28;20080;-69
2022/03/27 14:48:04;;;;;;;16.65;7.18;;;;;;;;;;5087625;28;20495;-69
2022/03/27 14:50:33;;;;;;;16.70;7.10;;;;;;;;;;5085430;28;20051;-69
2022/03/27 14:53:02;;;;;;;15.88;7.03;;;;;;;;;;5088899;28;20048;-69
2022/03/27 14:58:17;;;;;;;14.02;6.90;;;;;;;;;;5087249;28;20487;-69